Byron, Michigan
Current Conditions -  °F | °C
As of 12:35 PM on Tuesday 21 Oct 2014 (Local Time) from KOZW Reporting Station
Overcast Overcast  
Wind Chill:   Ceiling: 2400
Heat Index:   Visibility: 10mi
Dew Point:   Wind: 6mph
Humidity: 80%   Direction: 350°N
Pressure: 30.07"   Gusts: 18mph
Location:  42.82°N, 83.94°W
Report Text: KOZW 211635Z AUTO 35005G16KT 10SM SCT018 OVC024 07/04 A3007 RMK AO2 T00700038
Loading
Personal Weather Stations






























Interactive Weather Map
Tropical Storm Tracking
New forecast layout! Learn more

10-Day Weather Forecast

Advertisements
Track Severe Weather on mobile